Time;durP1;ratioP1;P1;durP2;ratioP2;P2;SDS_P1;SDS_P2;PMS_P1;PMS_P2;Temp;Humidity;BMP_temperature;BMP_pressure;BME280_temperature;BME280_humidity;BME280_pressure;Samples;Min_cycle;Max_cycle;Signal;HPM_P1;HPM_P2
2023/06/13 00:02:07;;;;;;;5.57;3.40;;;;;;;;;;5038262;28;20029;-77
2023/06/13 00:04:32;;;;;;;6.85;3.40;;;;;;;;;;5033860;28;20028;-78
2023/06/13 00:06:58;;;;;;;5.35;3.20;;;;;;;;;;5033713;28;20507;-77
2023/06/13 00:09:24;;;;;;;6.35;3.53;;;;;;;;;;5034188;28;20021;-78
2023/06/13 00:11:49;;;;;;;5.00;3.53;;;;;;;;;;5034331;28;20025;-78
2023/06/13 00:14:16;;;;;;;4.23;3.30;;;;;;;;;;5033593;28;20477;-78
2023/06/13 00:16:43;;;;;;;5.05;3.10;;;;;;;;;;5033434;28;20258;-78
2023/06/13 00:19:09;;;;;;;4.32;3.20;;;;;;;;;;5033787;28;20429;-78
2023/06/13 00:21:35;;;;;;;4.60;3.20;;;;;;;;;;5015458;28;20496;-78
2023/06/13 00:24:01;;;;;;;4.97;3.45;;;;;;;;;;5035304;28;20064;-77
2023/06/13 00:26:26;;;;;;;6.20;3.20;;;;;;;;;;5015878;28;20036;-77
2023/06/13 00:28:52;;;;;;;9.53;3.23;;;;;;;;;;5033406;28;20143;-77
2023/06/13 00:31:17;;;;;;;5.95;3.50;;;;;;;;;;5033639;28;20262;-79
2023/06/13 00:33:43;;;;;;;9.02;3.58;;;;;;;;;;5016920;28;20029;-79
2023/06/13 00:36:09;;;;;;;10.15;3.47;;;;;;;;;;5033593;28;20029;-77
2023/06/13 00:38:34;;;;;;;5.97;3.38;;;;;;;;;;5034136;28;20391;-77
2023/06/13 00:41:00;;;;;;;8.25;3.65;;;;;;;;;;5036736;28;20022;-77
2023/06/13 00:43:27;;;;;;;4.90;3.13;;;;;;;;;;5037703;28;20030;-77
2023/06/13 00:45:52;;;;;;;5.15;3.50;;;;;;;;;;5040948;28;20384;-78
2023/06/13 00:48:18;;;;;;;3.80;3.13;;;;;;;;;;5041187;28;20051;-78
2023/06/13 00:50:44;;;;;;;4.00;3.35;;;;;;;;;;5022234;28;20286;-79
2023/06/13 00:53:17;;;;;;;7.20;3.83;;;;;;;;;;5038484;28;20023;-78
2023/06/13 00:55:44;;;;;;;6.32;3.40;;;;;;;;;;5038031;28;20027;-78
2023/06/13 00:58:10;;;;;;;5.20;3.20;;;;;;;;;;5039610;28;20060;-78
2023/06/13 01:00:37;;;;;;;4.57;3.33;;;;;;;;;;5039959;28;20029;-78
2023/06/13 01:03:07;;;;;;;6.22;3.50;;;;;;;;;;5037779;28;20025;-78
2023/06/13 01:05:33;;;;;;;5.65;3.25;;;;;;;;;;5019316;28;20033;-77
2023/06/13 01:08:00;;;;;;;6.40;3.45;;;;;;;;;;5036517;28;20087;-79
2023/06/13 01:10:27;;;;;;;8.05;3.38;;;;;;;;;;5040976;28;20057;-77
2023/06/13 01:13:00;;;;;;;7.57;3.60;;;;;;;;;;5036670;28;20025;-77
2023/06/13 01:15:29;;;;;;;8.50;3.60;;;;;;;;;;5036407;28;20025;-77
2023/06/13 01:17:58;;;;;;;4.28;3.35;;;;;;;;;;5037172;28;20072;-78
2023/06/13 01:20:27;;;;;;;5.07;3.50;;;;;;;;;;5038695;28;20033;-77
2023/06/13 01:23:04;;;;;;;6.25;3.38;;;;;;;;;;5037459;28;20024;-77
2023/06/13 01:25:57;;;;;;;7.10;3.60;;;;;;;;;;5037021;28;20476;-78
2023/06/13 01:28:24;;;;;;;5.00;3.40;;;;;;;;;;5037101;28;20113;-77
2023/06/13 01:30:51;;;;;;;9.13;3.80;;;;;;;;;;5037990;28;20021;-77
2023/06/13 01:33:17;;;;;;;6.15;3.70;;;;;;;;;;5040719;28;20415;-78
2023/06/13 01:35:43;;;;;;;4.65;3.40;;;;;;;;;;5038242;28;20250;-78
2023/06/13 01:38:09;;;;;;;5.10;3.90;;;;;;;;;;5037723;28;20029;-78
2023/06/13 01:40:34;;;;;;;9.85;3.90;;;;;;;;;;5020253;28;20108;-78
2023/06/13 01:42:59;;;;;;;8.10;3.70;;;;;;;;;;5037500;28;20060;-77
2023/06/13 01:45:26;;;;;;;5.87;3.37;;;;;;;;;;5018530;28;20395;-77
2023/06/13 01:48:26;;;;;;;8.13;3.20;;;;;;;;;;5037903;28;20263;-78
2023/06/13 01:51:09;;;;;;;7.38;3.67;;;;;;;;;;5037055;28;20026;-77
2023/06/13 01:53:43;;;;;;;6.65;3.40;;;;;;;;;;5037068;28;20026;-76
2023/06/13 01:56:13;;;;;;;6.60;3.58;;;;;;;;;;5036456;28;20427;-77
2023/06/13 01:58:57;;;;;;;4.18;3.40;;;;;;;;;;5036436;28;20029;-78
2023/06/13 02:01:25;;;;;;;;;;;;;;;;;;5021140;28;20021;-78
2023/06/13 02:03:50;;;;;;;5.18;3.30;;;;;;;;;;5022328;28;20287;-78
2023/06/13 02:06:16;;;;;;;6.80;3.60;;;;;;;;;;5039258;28;20120;-78
2023/06/13 02:08:41;;;;;;;5.50;3.60;;;;;;;;;;5018420;28;20773;-77
2023/06/13 02:11:06;;;;;;;5.10;3.80;;;;;;;;;;5018332;28;20024;-78
2023/06/13 02:13:32;;;;;;;9.97;3.77;;;;;;;;;;5036774;28;20057;-77
2023/06/13 02:15:57;;;;;;;4.68;3.50;;;;;;;;;;5035309;28;20259;-78
2023/06/13 02:18:22;;;;;;;4.43;3.30;;;;;;;;;;5036146;28;20030;-78
2023/06/13 02:20:47;;;;;;;6.27;3.40;;;;;;;;;;5036024;28;20285;-78
2023/06/13 02:23:13;;;;;;;4.80;3.53;;;;;;;;;;5037404;28;20270;-78
2023/06/13 02:25:38;;;;;;;6.32;3.60;;;;;;;;;;5035120;28;20797;-78
2023/06/13 02:28:03;;;;;;;4.30;3.40;;;;;;;;;;5035688;28;20037;-78
2023/06/13 02:30:29;;;;;;;6.30;3.55;;;;;;;;;;5035887;28;20065;-78
2023/06/13 02:32:54;;;;;;;8.90;3.70;;;;;;;;;;5035478;28;20025;-78
2023/06/13 02:35:25;;;;;;;4.93;3.63;;;;;;;;;;5036746;28;20032;-78
2023/06/13 02:37:53;;;;;;;4.97;3.70;;;;;;;;;;5036432;28;20052;-75
2023/06/13 02:40:19;;;;;;;4.43;3.45;;;;;;;;;;5035858;28;20032;-78
2023/06/13 02:42:49;;;;;;;8.27;3.70;;;;;;;;;;5036410;28;20495;-78
2023/06/13 02:45:15;;;;;;;6.10;3.95;;;;;;;;;;5035076;28;20056;-78
2023/06/13 02:47:40;;;;;;;5.75;3.70;;;;;;;;;;5035274;28;20048;-78
2023/06/13 02:50:06;;;;;;;8.43;3.50;;;;;;;;;;5035382;28;20492;-78
2023/06/13 02:52:31;;;;;;;7.70;3.90;;;;;;;;;;5037194;28;20255;-78
2023/06/13 02:54:56;;;;;;;6.33;3.60;;;;;;;;;;5036834;28;20029;-78
2023/06/13 02:57:21;;;;;;;5.43;3.72;;;;;;;;;;5035932;28;20261;-77
2023/06/13 02:59:47;;;;;;;5.33;3.70;;;;;;;;;;5016612;28;20029;-77
2023/06/13 03:02:13;;;;;;;10.68;3.50;;;;;;;;;;5034229;28;20286;-77
2023/06/13 03:04:38;;;;;;;8.20;3.53;;;;;;;;;;5016907;28;20469;-78
2023/06/13 03:07:05;;;;;;;6.40;3.80;;;;;;;;;;5034598;28;20057;-78
2023/06/13 03:09:31;;;;;;;5.55;3.75;;;;;;;;;;5034486;28;20328;-78
2023/06/13 03:11:56;;;;;;;9.27;4.03;;;;;;;;;;5034236;28;20435;-78
2023/06/13 03:14:22;;;;;;;4.63;3.20;;;;;;;;;;5033944;28;20392;-77
2023/06/13 03:16:48;;;;;;;6.15;3.35;;;;;;;;;;5034229;28;20716;-78
2023/06/13 03:19:13;;;;;;;6.45;3.60;;;;;;;;;;5016303;28;20037;-77
2023/06/13 03:21:40;;;;;;;5.70;3.57;;;;;;;;;;5016097;28;20068;-77
2023/06/13 03:24:06;;;;;;;5.22;3.58;;;;;;;;;;5034122;28;20644;-78
2023/06/13 03:26:38;;;;;;;8.07;4.07;;;;;;;;;;5033975;28;20026;-78
2023/06/13 03:29:03;;;;;;;4.15;3.35;;;;;;;;;;5034110;28;20060;-77
2023/06/13 03:31:28;;;;;;;7.30;3.63;;;;;;;;;;5033838;28;20110;-77
2023/06/13 03:33:53;;;;;;;4.88;3.33;;;;;;;;;;5034197;28;20061;-77
2023/06/13 03:36:19;;;;;;;5.77;3.73;;;;;;;;;;5034072;28;20029;-77
2023/06/13 03:38:44;;;;;;;9.98;4.20;;;;;;;;;;5037143;28;20274;-78
2023/06/13 03:41:09;;;;;;;7.03;3.90;;;;;;;;;;5019578;28;20022;-78
2023/06/13 03:43:35;;;;;;;6.27;3.83;;;;;;;;;;5037680;28;20273;-77
2023/06/13 03:46:00;;;;;;;8.60;3.97;;;;;;;;;;5035561;28;20266;-77
2023/06/13 03:48:25;;;;;;;6.90;3.88;;;;;;;;;;5016081;28;20272;-78
2023/06/13 03:50:50;;;;;;;5.33;4.00;;;;;;;;;;5017082;28;20021;-78
2023/06/13 03:53:16;;;;;;;6.93;3.93;;;;;;;;;;5034659;28;20306;-77
2023/06/13 03:55:41;;;;;;;4.57;3.83;;;;;;;;;;5034041;28;20270;-77
2023/06/13 03:58:06;;;;;;;9.17;4.10;;;;;;;;;;5033964;28;20320;-78
2023/06/13 04:00:34;;;;;;;5.70;3.77;;;;;;;;;;5033241;28;20278;-77
2023/06/13 04:03:02;;;;;;;6.93;3.78;;;;;;;;;;5034659;28;20305;-78
2023/06/13 04:05:27;;;;;;;7.60;3.75;;;;;;;;;;5032743;28;20083;-78
2023/06/13 04:07:55;;;;;;;11.83;3.73;;;;;;;;;;5033405;28;20033;-79
2023/06/13 04:10:21;;;;;;;5.20;3.63;;;;;;;;;;5033245;28;20737;-77
2023/06/13 04:12:47;;;;;;;4.82;3.65;;;;;;;;;;5015406;28;20025;-78
2023/06/13 04:15:12;;;;;;;7.47;4.28;;;;;;;;;;5032406;28;20033;-78
2023/06/13 04:17:37;;;;;;;6.65;4.13;;;;;;;;;;5033095;28;20075;-78
2023/06/13 04:20:05;;;;;;;9.90;4.13;;;;;;;;;;5032987;28;20033;-77
2023/06/13 04:22:31;;;;;;;9.38;3.88;;;;;;;;;;5033043;28;20251;-77
2023/06/13 04:24:56;;;;;;;8.68;3.83;;;;;;;;;;5033123;28;20025;-77
2023/06/13 04:27:27;;;;;;;8.23;3.70;;;;;;;;;;5034590;28;20029;-77
2023/06/13 04:29:53;;;;;;;6.75;4.25;;;;;;;;;;5033212;28;20032;-76
2023/06/13 04:32:19;;;;;;;7.05;3.95;;;;;;;;;;5015520;28;20538;-78
2023/06/13 04:34:44;;;;;;;11.30;3.78;;;;;;;;;;5032714;28;20029;-77
2023/06/13 04:37:11;;;;;;;5.90;3.88;;;;;;;;;;5015041;28;20392;-77
2023/06/13 04:39:37;;;;;;;9.52;3.92;;;;;;;;;;5033162;28;20068;-78
2023/06/13 04:42:03;;;;;;;5.93;4.10;;;;;;;;;;5032971;28;20451;-77
2023/06/13 04:44:28;;;;;;;4.80;3.83;;;;;;;;;;5033246;28;20068;-78
2023/06/13 04:46:57;;;;;;;8.27;4.10;;;;;;;;;;5016558;28;20495;-78
2023/06/13 04:49:23;;;;;;;5.25;4.10;;;;;;;;;;5035027;28;20466;-78
2023/06/13 04:51:49;;;;;;;6.53;4.20;;;;;;;;;;5034282;28;20025;-78
2023/06/13 04:54:15;;;;;;;6.35;3.85;;;;;;;;;;5033741;28;20029;-77
2023/06/13 04:56:41;;;;;;;8.52;4.18;;;;;;;;;;5033192;28;20037;-78
2023/06/13 04:59:06;;;;;;;8.48;4.20;;;;;;;;;;5015054;28;20442;-77
2023/06/13 05:01:32;;;;;;;6.35;3.97;;;;;;;;;;5032626;28;20051;-77
2023/06/13 05:03:57;;;;;;;7.43;3.85;;;;;;;;;;5015229;28;20025;-77
2023/06/13 05:06:23;;;;;;;6.60;4.00;;;;;;;;;;5033012;28;20096;-77
2023/06/13 05:08:48;;;;;;;6.18;3.80;;;;;;;;;;5035140;28;20100;-78
2023/06/13 05:11:14;;;;;;;4.50;3.50;;;;;;;;;;5016874;28;20021;-78
2023/06/13 05:13:39;;;;;;;7.68;3.80;;;;;;;;;;5034323;28;20045;-78
2023/06/13 05:16:04;;;;;;;8.48;4.05;;;;;;;;;;5033989;28;20443;-78
2023/06/13 05:18:31;;;;;;;7.18;3.58;;;;;;;;;;5036420;28;20025;-78
2023/06/13 05:20:57;;;;;;;8.73;3.80;;;;;;;;;;5033913;28;20050;-78
2023/06/13 05:23:22;;;;;;;8.13;4.38;;;;;;;;;;5034831;28;20032;-77
2023/06/13 05:25:48;;;;;;;7.32;4.15;;;;;;;;;;5034019;28;20457;-77
2023/06/13 05:28:14;;;;;;;9.45;4.25;;;;;;;;;;5018287;28;20021;-77
2023/06/13 05:30:39;;;;;;;6.38;4.18;;;;;;;;;;5036258;28;20022;-77
2023/06/13 05:33:05;;;;;;;9.32;3.75;;;;;;;;;;5036585;28;20033;-78
2023/06/13 05:35:30;;;;;;;7.82;4.15;;;;;;;;;;5036195;28;20071;-77
2023/06/13 05:37:55;;;;;;;8.33;3.80;;;;;;;;;;5036346;28;20028;-77
2023/06/13 05:40:20;;;;;;;7.35;3.70;;;;;;;;;;5036928;28;20279;-76
2023/06/13 05:42:46;;;;;;;6.20;3.80;;;;;;;;;;5036816;28;20036;-78
2023/06/13 05:45:11;;;;;;;8.88;3.92;;;;;;;;;;5040495;28;20265;-79
2023/06/13 05:47:36;;;;;;;9.73;3.90;;;;;;;;;;5019737;28;20468;-77
2023/06/13 05:50:03;;;;;;;6.57;3.85;;;;;;;;;;5036811;28;20618;-77
2023/06/13 05:52:28;;;;;;;5.47;4.03;;;;;;;;;;5040370;28;20048;-78
2023/06/13 05:54:53;;;;;;;7.47;4.20;;;;;;;;;;5038415;28;20033;-77
2023/06/13 05:57:19;;;;;;;7.38;3.72;;;;;;;;;;5019541;28;20029;-77
2023/06/13 05:59:44;;;;;;;9.10;3.85;;;;;;;;;;5037263;28;20388;-79
2023/06/13 06:02:10;;;;;;;9.63;4.43;;;;;;;;;;5039079;28;20480;-77
2023/06/13 06:04:36;;;;;;;6.10;4.10;;;;;;;;;;5018261;28;20026;-78
2023/06/13 06:07:02;;;;;;;7.47;4.00;;;;;;;;;;5017860;28;20502;-77
2023/06/13 06:09:28;;;;;;;10.10;3.90;;;;;;;;;;5036286;28;20562;-78
2023/06/13 06:11:53;;;;;;;7.07;3.92;;;;;;;;;;5035794;28;20044;-77
2023/06/13 06:14:18;;;;;;;6.18;3.95;;;;;;;;;;5035713;28;20017;-77
2023/06/13 06:16:44;;;;;;;8.77;3.57;;;;;;;;;;5035485;28;20033;-78
2023/06/13 06:19:09;;;;;;;4.47;3.30;;;;;;;;;;5035476;28;20266;-77
2023/06/13 06:21:34;;;;;;;5.97;3.95;;;;;;;;;;5035195;28;20290;-78
2023/06/13 06:24:00;;;;;;;6.90;3.67;;;;;;;;;;5036733;28;20061;-76
2023/06/13 06:26:26;;;;;;;5.55;3.55;;;;;;;;;;5035459;28;20029;-76
2023/06/13 06:28:51;;;;;;;7.07;3.50;;;;;;;;;;5035624;28;20105;-78
2023/06/13 06:31:17;;;;;;;5.43;3.50;;;;;;;;;;5035421;28;20060;-78
2023/06/13 06:33:42;;;;;;;7.18;3.40;;;;;;;;;;5017992;28;20061;-77
2023/06/13 06:36:07;;;;;;;5.80;3.17;;;;;;;;;;5017720;28;20033;-77
2023/06/13 06:38:33;;;;;;;10.45;3.67;;;;;;;;;;5034104;28;20265;-77
2023/06/13 06:40:58;;;;;;;6.88;3.42;;;;;;;;;;5035456;28;20017;-76
2023/06/13 06:43:24;;;;;;;5.60;3.28;;;;;;;;;;5035382;28;20040;-79
2023/06/13 06:45:49;;;;;;;9.25;3.25;;;;;;;;;;5035068;28;20021;-77
2023/06/13 06:48:14;;;;;;;5.18;3.03;;;;;;;;;;5034958;28;20029;-77
2023/06/13 06:50:40;;;;;;;4.90;3.58;;;;;;;;;;5018549;28;20021;-79
2023/06/13 06:53:05;;;;;;;15.50;3.43;;;;;;;;;;5017531;28;20040;-78
2023/06/13 06:55:30;;;;;;;7.97;3.17;;;;;;;;;;5034780;28;20251;-77
2023/06/13 06:57:56;;;;;;;4.50;3.30;;;;;;;;;;5035387;28;20282;-78
2023/06/13 07:00:22;;;;;;;6.60;3.08;;;;;;;;;;5036479;28;20150;-77
2023/06/13 07:02:47;;;;;;;4.88;3.17;;;;;;;;;;5034405;28;20021;-79
2023/06/13 07:05:15;;;;;;;5.70;2.97;;;;;;;;;;5036051;28;20044;-78
2023/06/13 07:07:42;;;;;;;7.15;3.03;;;;;;;;;;5036209;28;20258;-78
2023/06/13 07:10:07;;;;;;;8.10;3.30;;;;;;;;;;5016981;28;20499;-78
2023/06/13 07:12:34;;;;;;;5.15;3.00;;;;;;;;;;5034470;28;20045;-78
2023/06/13 07:14:59;;;;;;;7.20;3.20;;;;;;;;;;5034254;28;20484;-75
2023/06/13 07:17:25;;;;;;;5.13;3.20;;;;;;;;;;5034235;28;20048;-77
2023/06/13 07:19:50;;;;;;;6.72;3.17;;;;;;;;;;5034380;28;20442;-78
2023/06/13 07:22:16;;;;;;;6.70;3.07;;;;;;;;;;5034629;28;20487;-77
2023/06/13 07:24:41;;;;;;;4.10;2.57;;;;;;;;;;5034780;28;20737;-79
2023/06/13 07:27:07;;;;;;;5.25;3.10;;;;;;;;;;5016625;28;20761;-77
2023/06/13 07:29:32;;;;;;;6.82;3.60;;;;;;;;;;5034431;28;20053;-79
2023/06/13 07:31:57;;;;;;;4.43;2.80;;;;;;;;;;5036837;28;20025;-78
2023/06/13 07:34:23;;;;;;;6.00;2.70;;;;;;;;;;5016780;28;20270;-78
2023/06/13 07:36:48;;;;;;;6.47;3.10;;;;;;;;;;5034171;28;20262;-77
2023/06/13 07:39:14;;;;;;;5.27;3.00;;;;;;;;;;5034309;28;20357;-77
2023/06/13 07:41:39;;;;;;;4.75;2.97;;;;;;;;;;5034083;28;20402;-78
2023/06/13 07:44:06;;;;;;;7.90;3.13;;;;;;;;;;5036268;28;20032;-78
2023/06/13 07:46:31;;;;;;;6.05;2.65;;;;;;;;;;5033502;28;20551;-77
2023/06/13 07:48:57;;;;;;;7.95;2.88;;;;;;;;;;5033219;28;20029;-76
2023/06/13 07:51:22;;;;;;;4.82;2.90;;;;;;;;;;5015549;28;20022;-76
2023/06/13 07:53:47;;;;;;;8.63;3.05;;;;;;;;;;5033690;28;20402;-77
2023/06/13 07:56:13;;;;;;;7.93;3.10;;;;;;;;;;5015513;28;20022;-77
2023/06/13 07:58:38;;;;;;;5.78;2.78;;;;;;;;;;5033317;28;20259;-76
2023/06/13 08:01:04;;;;;;;7.43;2.97;;;;;;;;;;5033475;28;20029;-77
2023/06/13 08:03:29;;;;;;;4.32;3.00;;;;;;;;;;5033059;28;20022;-77
2023/06/13 08:05:55;;;;;;;8.32;2.90;;;;;;;;;;5032766;28;20133;-77
2023/06/13 08:08:20;;;;;;;6.45;2.92;;;;;;;;;;5033445;28;20045;-77
2023/06/13 08:10:45;;;;;;;4.65;3.00;;;;;;;;;;5033121;28;20439;-77
2023/06/13 08:13:10;;;;;;;10.07;3.00;;;;;;;;;;5033111;28;20037;-76
2023/06/13 08:15:36;;;;;;;4.40;2.50;;;;;;;;;;5033066;28;20389;-77
2023/06/13 08:18:01;;;;;;;5.07;2.97;;;;;;;;;;5033094;28;20312;-78
2023/06/13 08:20:26;;;;;;;6.05;3.10;;;;;;;;;;5032805;28;20029;-77
2023/06/13 08:22:51;;;;;;;5.95;3.00;;;;;;;;;;5033511;28;20445;-77
2023/06/13 08:25:17;;;;;;;4.70;2.97;;;;;;;;;;5033363;28;20049;-76
2023/06/13 08:27:44;;;;;;;7.30;3.20;;;;;;;;;;5015547;28;20258;-76
2023/06/13 08:30:10;;;;;;;5.18;2.95;;;;;;;;;;5032800;28;20017;-77
2023/06/13 08:32:35;;;;;;;6.22;3.00;;;;;;;;;;5032580;28;20017;-77
2023/06/13 08:35:00;;;;;;;3.63;2.87;;;;;;;;;;5032804;28;20022;-76
2023/06/13 08:37:26;;;;;;;5.60;2.95;;;;;;;;;;5032949;28;20298;-78
2023/06/13 08:39:51;;;;;;;6.43;3.13;;;;;;;;;;5032851;28;20029;-77
2023/06/13 08:42:18;;;;;;;4.20;2.70;;;;;;;;;;5033624;28;20040;-78
2023/06/13 08:44:43;;;;;;;5.55;3.00;;;;;;;;;;5034588;28;20341;-82
2023/06/13 08:47:10;;;;;;;7.03;2.60;;;;;;;;;;5033328;28;20029;-75
2023/06/13 08:49:35;;;;;;;9.23;2.85;;;;;;;;;;5035287;28;20035;-77
2023/06/13 08:52:02;;;;;;;5.93;2.63;;;;;;;;;;5034751;28;20100;-77
2023/06/13 08:54:31;;;;;;;6.15;2.70;;;;;;;;;;5014991;28;20251;-76
2023/06/13 08:56:59;;;;;;;6.25;2.88;;;;;;;;;;5034763;28;20017;-77
2023/06/13 08:59:26;;;;;;;6.18;2.58;;;;;;;;;;5032472;28;20365;-76
2023/06/13 09:01:53;;;;;;;5.55;2.90;;;;;;;;;;5018417;28;20116;-76
2023/06/13 09:04:18;;;;;;;8.02;2.72;;;;;;;;;;5036920;28;20380;-77
2023/06/13 09:06:45;;;;;;;6.45;2.58;;;;;;;;;;5037348;28;20029;-76
2023/06/13 09:09:12;;;;;;;5.65;2.60;;;;;;;;;;5038825;28;20025;-79
2023/06/13 09:11:37;;;;;;;8.48;4.25;;;;;;;;;;5042132;28;20021;-79
2023/06/13 09:14:04;;;;;;;7.53;2.83;;;;;;;;;;5019875;28;20048;-77
2023/06/13 09:16:30;;;;;;;7.72;2.90;;;;;;;;;;5036923;28;20036;-78
2023/06/13 09:18:57;;;;;;;6.78;2.75;;;;;;;;;;5023842;28;20017;-77
2023/06/13 09:21:22;;;;;;;7.65;2.42;;;;;;;;;;5022465;28;20029;-78
2023/06/13 09:23:48;;;;;;;12.82;5.60;;;;;;;;;;5037378;28;20022;-77
2023/06/13 09:26:15;;;;;;;14.25;7.13;;;;;;;;;;5036290;28;20032;-76
2023/06/13 09:28:42;;;;;;;30.15;15.23;;;;;;;;;;5016790;28;20079;-77
2023/06/13 09:31:07;;;;;;;7.32;3.30;;;;;;;;;;5017901;28;20472;-75
2023/06/13 09:33:34;;;;;;;6.28;4.85;;;;;;;;;;5035952;28;20022;-76
2023/06/13 09:35:59;;;;;;;4.95;3.10;;;;;;;;;;5036061;28;20048;-77
2023/06/13 09:38:24;;;;;;;5.53;2.92;;;;;;;;;;5036296;28;20481;-77
2023/06/13 09:40:53;;;;;;;7.05;3.17;;;;;;;;;;5019300;28;20022;-77
2023/06/13 09:43:19;;;;;;;10.48;2.90;;;;;;;;;;5036872;28;20029;-77
2023/06/13 09:45:44;;;;;;;15.82;5.07;;;;;;;;;;5036647;28;20045;-78
2023/06/13 09:48:09;;;;;;;5.60;3.28;;;;;;;;;;5036406;28;20028;-78
2023/06/13 09:50:36;;;;;;;8.67;3.03;;;;;;;;;;5019524;28;20021;-77
2023/06/13 09:53:01;;;;;;;9.15;3.20;;;;;;;;;;5036273;28;20664;-78
2023/06/13 09:55:27;;;;;;;4.93;2.65;;;;;;;;;;5041003;28;20025;-79
2023/06/13 09:57:53;;;;;;;6.03;2.58;;;;;;;;;;5023802;28;20079;-80
2023/06/13 10:00:23;;;;;;;13.32;4.45;;;;;;;;;;5038072;28;20053;-80
2023/06/13 10:02:50;;;;;;;9.23;3.95;;;;;;;;;;5036016;28;20033;-77
2023/06/13 10:05:15;;;;;;;5.82;2.70;;;;;;;;;;5018647;28;20033;-77
2023/06/13 10:07:41;;;;;;;9.85;2.90;;;;;;;;;;5036639;28;20040;-77
2023/06/13 10:10:07;;;;;;;8.97;2.50;;;;;;;;;;5035071;28;20388;-78
2023/06/13 10:12:38;;;;;;;4.45;2.50;;;;;;;;;;5034068;28;20255;-75
2023/06/13 10:15:06;;;;;;;8.38;2.53;;;;;;;;;;5036655;28;20029;-76
2023/06/13 10:17:40;;;;;;;7.05;2.70;;;;;;;;;;5018999;28;20116;-74
2023/06/13 10:20:10;;;;;;;5.35;3.08;;;;;;;;;;5035694;28;20029;-74
2023/06/13 10:22:38;;;;;;;4.03;2.63;;;;;;;;;;5035570;28;20029;-75
2023/06/13 10:25:04;;;;;;;5.85;2.70;;;;;;;;;;5035315;28;20025;-73
2023/06/13 10:27:29;;;;;;;7.43;2.50;;;;;;;;;;5036910;28;20029;-81
2023/06/13 10:30:27;;;;;;;4.40;2.50;;;;;;;;;;5037286;28;20369;-75
2023/06/13 10:33:23;;;;;;;7.07;2.92;;;;;;;;;;5036816;28;20515;-74
2023/06/13 10:36:02;;;;;;;4.65;2.47;;;;;;;;;;5037311;28;20029;-75
2023/06/13 10:38:53;;;;;;;6.80;2.75;;;;;;;;;;5037948;28;20027;-75
2023/06/13 10:41:40;;;;;;;10.88;3.20;;;;;;;;;;5019829;28;20022;-75
2023/06/13 10:44:10;;;;;;;9.77;2.65;;;;;;;;;;5037618;28;20534;-74
2023/06/13 10:46:37;;;;;;;4.80;2.47;;;;;;;;;;5019928;28;20025;-75
2023/06/13 10:49:02;;;;;;;5.90;2.80;;;;;;;;;;5037801;28;20033;-74
2023/06/13 10:51:30;;;;;;;5.88;2.70;;;;;;;;;;5036588;28;20083;-75
2023/06/13 10:54:01;;;;;;;7.97;2.67;;;;;;;;;;5035839;28;20025;-75
2023/06/13 10:56:31;;;;;;;5.65;2.70;;;;;;;;;;5019175;28;20030;-75
2023/06/13 10:59:04;;;;;;;3.22;2.67;;;;;;;;;;5037416;28;20572;-76
2023/06/13 11:01:31;;;;;;;7.25;2.70;;;;;;;;;;5036732;28;20029;-75
2023/06/13 11:04:08;;;;;;;5.15;2.97;;;;;;;;;;5018360;28;20476;-74
2023/06/13 11:06:33;;;;;;;4.22;2.63;;;;;;;;;;5036353;28;20041;-76
2023/06/13 11:09:18;;;;;;;6.22;2.88;;;;;;;;;;5018152;28;20392;-75
2023/06/13 11:11:52;;;;;;;6.57;2.88;;;;;;;;;;5036216;28;20239;-75
2023/06/13 11:14:26;;;;;;;7.47;2.70;;;;;;;;;;5036711;28;20029;-75
2023/06/13 11:16:52;;;;;;;6.20;3.20;;;;;;;;;;5036184;28;20033;-75
2023/06/13 11:19:23;;;;;;;7.05;3.35;;;;;;;;;;5036686;28;20471;-75
2023/06/13 11:22:05;;;;;;;4.60;3.00;;;;;;;;;;5036648;28;20021;-76
2023/06/13 11:24:35;;;;;;;4.57;3.00;;;;;;;;;;5035770;28;20071;-74
2023/06/13 11:27:03;;;;;;;5.13;2.70;;;;;;;;;;5036045;28;20029;-76
2023/06/13 11:29:29;;;;;;;8.52;3.30;;;;;;;;;;5036531;28;20389;-75
2023/06/13 11:31:55;;;;;;;9.80;3.10;;;;;;;;;;5036917;28;20104;-76
2023/06/13 11:34:24;;;;;;;5.85;3.08;;;;;;;;;;5037405;28;20023;-75
2023/06/13 11:36:50;;;;;;;5.50;3.03;;;;;;;;;;5037336;28;20033;-75
2023/06/13 11:39:29;;;;;;;8.05;3.22;;;;;;;;;;5018870;28;20074;-75
2023/06/13 11:41:55;;;;;;;9.35;3.17;;;;;;;;;;5036849;28;20029;-76
2023/06/13 11:44:22;;;;;;;6.90;2.67;;;;;;;;;;5036335;28;20033;-76
2023/06/13 11:46:47;;;;;;;4.40;2.85;;;;;;;;;;5036473;28;20033;-76
2023/06/13 11:49:16;;;;;;;11.35;3.00;;;;;;;;;;5036344;28;20534;-75
2023/06/13 11:51:43;;;;;;;4.00;2.58;;;;;;;;;;5036491;28;20029;-76
2023/06/13 11:54:10;;;;;;;7.63;3.10;;;;;;;;;;5018732;28;20030;-75
2023/06/13 11:56:40;;;;;;;4.38;3.22;;;;;;;;;;5036645;28;20036;-76
2023/06/13 11:59:17;;;;;;;5.13;3.10;;;;;;;;;;5036868;28;20380;-76
2023/06/13 12:01:48;;;;;;;6.45;3.10;;;;;;;;;;5034414;28;20522;-75
2023/06/13 12:04:15;;;;;;;5.97;3.15;;;;;;;;;;5033561;28;20045;-75
2023/06/13 12:06:41;;;;;;;8.73;2.97;;;;;;;;;;5033487;28;20025;-75
2023/06/13 12:09:06;;;;;;;5.60;2.90;;;;;;;;;;5033708;28;20029;-76
2023/06/13 12:11:32;;;;;;;6.68;3.17;;;;;;;;;;5015926;28;20020;-75
2023/06/13 12:13:59;;;;;;;5.30;3.33;;;;;;;;;;5033485;28;20059;-75
2023/06/13 12:16:27;;;;;;;6.15;3.10;;;;;;;;;;5033906;28;20109;-75
2023/06/13 12:18:53;;;;;;;3.97;2.80;;;;;;;;;;5033753;28;20083;-75
2023/06/13 12:21:21;;;;;;;13.15;2.72;;;;;;;;;;5033847;28;20463;-75
2023/06/13 12:23:47;;;;;;;6.93;2.80;;;;;;;;;;5033837;28;20067;-75
2023/06/13 12:26:12;;;;;;;5.47;3.08;;;;;;;;;;5016740;28;20058;-75
2023/06/13 12:28:39;;;;;;;4.20;2.90;;;;;;;;;;5034043;28;20029;-75
2023/06/13 12:31:07;;;;;;;10.20;2.78;;;;;;;;;;5034308;28;20044;-75
2023/06/13 12:33:36;;;;;;;9.85;2.70;;;;;;;;;;5016825;28;20025;-75
2023/06/13 12:36:04;;;;;;;8.52;3.17;;;;;;;;;;5034287;28;20024;-75
2023/06/13 12:38:31;;;;;;;7.25;2.70;;;;;;;;;;5035035;28;20021;-75
2023/06/13 12:40:56;;;;;;;5.75;2.60;;;;;;;;;;5035194;28;20442;-76
2023/06/13 12:43:24;;;;;;;10.65;3.10;;;;;;;;;;5035847;28;20021;-76
2023/06/13 12:45:49;;;;;;;4.88;3.00;;;;;;;;;;5035247;28;20456;-76
2023/06/13 12:48:18;;;;;;;5.20;2.88;;;;;;;;;;5016940;28;20024;-75
2023/06/13 12:50:44;;;;;;;10.65;2.50;;;;;;;;;;5034754;28;20026;-75
2023/06/13 12:53:09;;;;;;;3.75;2.63;;;;;;;;;;5036002;28;20022;-75
2023/06/13 12:55:36;;;;;;;7.13;2.78;;;;;;;;;;5035820;28;20033;-75
2023/06/13 12:58:22;;;;;;;5.15;2.40;;;;;;;;;;5017454;28;20029;-77
2023/06/13 13:00:50;;;;;;;6.60;2.70;;;;;;;;;;5034432;28;20026;-75
2023/06/13 13:03:15;;;;;;;3.75;2.47;;;;;;;;;;5035735;28;20121;-75
2023/06/13 13:05:40;;;;;;;3.08;2.42;;;;;;;;;;5034789;28;20472;-75
2023/06/13 13:08:07;;;;;;;7.40;2.50;;;;;;;;;;5035623;28;20427;-75
2023/06/13 13:10:34;;;;;;;4.57;2.20;;;;;;;;;;5035849;28;20270;-74
2023/06/13 13:12:59;;;;;;;4.38;2.60;;;;;;;;;;5035968;28;20464;-74
2023/06/13 13:15:24;;;;;;;4.50;2.50;;;;;;;;;;5035386;28;20040;-75
2023/06/13 13:17:50;;;;;;;4.15;2.95;;;;;;;;;;5034879;28;20262;-75
2023/06/13 13:20:15;;;;;;;5.82;2.50;;;;;;;;;;5017147;28;20022;-76
2023/06/13 13:22:41;;;;;;;6.40;2.70;;;;;;;;;;5035387;28;20028;-75
2023/06/13 13:25:06;;;;;;;5.90;2.60;;;;;;;;;;5035604;28;20045;-74
2023/06/13 13:27:32;;;;;;;3.25;2.40;;;;;;;;;;5035404;28;20263;-74
2023/06/13 13:29:57;;;;;;;7.38;2.65;;;;;;;;;;5035733;28;20473;-74
2023/06/13 13:32:23;;;;;;;4.75;2.72;;;;;;;;;;5035449;28;20030;-75
2023/06/13 13:34:48;;;;;;;6.75;2.40;;;;;;;;;;5035063;28;20512;-74
2023/06/13 13:37:13;;;;;;;6.47;2.80;;;;;;;;;;5017253;28;20071;-75
2023/06/13 13:39:38;;;;;;;7.05;2.80;;;;;;;;;;5034520;28;20485;-77
2023/06/13 13:42:04;;;;;;;5.67;3.13;;;;;;;;;;5034924;28;20045;-76
2023/06/13 13:44:29;;;;;;;4.15;2.50;;;;;;;;;;5034757;28;20265;-76
2023/06/13 13:46:54;;;;;;;3.70;2.40;;;;;;;;;;5036123;28;20443;-76
2023/06/13 13:49:20;;;;;;;7.67;2.70;;;;;;;;;;5039070;28;20709;-76
2023/06/13 13:51:47;;;;;;;8.82;2.67;;;;;;;;;;5037952;28;20625;-76
2023/06/13 13:54:12;;;;;;;5.70;2.40;;;;;;;;;;5020561;28;20026;-76
2023/06/13 13:56:38;;;;;;;7.38;3.10;;;;;;;;;;5038568;28;20100;-76
2023/06/13 13:59:03;;;;;;;9.90;2.80;;;;;;;;;;5020245;28;20029;-76
2023/06/13 14:01:28;;;;;;;7.83;2.90;;;;;;;;;;5038157;28;20380;-76
2023/06/13 14:03:53;;;;;;;8.10;2.60;;;;;;;;;;5037855;28;20309;-74
2023/06/13 14:06:19;;;;;;;7.80;2.80;;;;;;;;;;5019951;28;20324;-76
2023/06/13 14:08:44;;;;;;;6.53;2.50;;;;;;;;;;5020687;28;20267;-76
2023/06/13 14:11:09;;;;;;;9.95;2.70;;;;;;;;;;5020635;28;20250;-76
2023/06/13 14:13:35;;;;;;;7.30;2.80;;;;;;;;;;5037816;28;20025;-76
2023/06/13 14:16:00;;;;;;;8.43;2.78;;;;;;;;;;5037884;28;20086;-76
2023/06/13 14:18:25;;;;;;;5.72;2.95;;;;;;;;;;5037919;28;20427;-75
2023/06/13 14:20:51;;;;;;;9.83;2.70;;;;;;;;;;5037192;28;20029;-75
2023/06/13 14:23:16;;;;;;;3.83;2.80;;;;;;;;;;5037605;28;20741;-75
2023/06/13 14:25:46;;;;;;;7.38;3.08;;;;;;;;;;5020451;28;20270;-75
2023/06/13 14:28:12;;;;;;;5.47;2.80;;;;;;;;;;5019953;28;20021;-76
2023/06/13 14:30:37;;;;;;;7.63;3.10;;;;;;;;;;5037703;28;20025;-74
2023/06/13 14:33:03;;;;;;;7.55;2.72;;;;;;;;;;5021090;28;20483;-74
2023/06/13 14:35:28;;;;;;;5.95;2.80;;;;;;;;;;5038149;28;20033;-76
2023/06/13 14:37:53;;;;;;;7.17;3.00;;;;;;;;;;5037900;28;20089;-75
2023/06/13 14:40:19;;;;;;;6.45;2.90;;;;;;;;;;5037419;28;20623;-76
2023/06/13 14:42:44;;;;;;;7.67;3.03;;;;;;;;;;5038052;28;20025;-76